Главная страница
METAR-TAF:

METAR-TAF

Аэропорты :

Саратов, Россия

Саратов-Центральный

широта: 51-34-12N, долгота: 046-04-12E, высота над уровнем моря: 166 м

Текущие метеонаблюдения

Эта сводка был подготовлена 25 минут назад, в 07:00 UTC
Ветер 12 Узел от юго-восточный
Температура 18°C
Влажность 37%
Давление 1026 hPa
Видимость 10 км и более
Нет облачности ниже 1500 м, и нет кучево-дождевой облачности

METAR: UWSS 290700Z 13006MPS CAVOK 18/03 Q1026 R12/010095 NOSIG RMK QFE758

Время: 10:25 (07:25 UTC)

Прогноз

Эта сводка был подготовлена 2 часа и 25 минут назад, в 05:00 UTC
Прогноз действительный с 29-го 06 UTC до 29-го 15 UTC
Ветер 12 Узел от юго-восточный
Видимость 10 км и более
Нет облачности ниже 1500 м, и нет кучево-дождевой облачности
временами
С 29-го 06 UTC до 29-го 15 UTC
Ветер 17 Узел от восточно-юго-восточный

TAF: UWSS 290500Z 2906/2915 13006MPS CAVOK TEMPO 2906/2915 11009MPS

Метеонаблюдения и прогнозы для более 4000 аэропортов (сводки METAR и TAF).

Имеющиеся станции представлены на карте желтыми и красными точками.

Чтобы увидеть название станции, наведите на нее мышь.

Затем щелкните, чтобы увидеть метеонаблюдения и метеопрогнозы.

Управление картой: чтобы увеличить масштаб, щелкните зеленые кнопки с черным крестиком; чтобы уменьшить масштаб, щелкните зеленую кнопку с тире; для просмотра соседних карт щелкайте зеленые стрелки.


METAR-TAF: